Time;durP1;ratioP1;P1;durP2;ratioP2;P2;SDS_P1;SDS_P2;PMS_P1;PMS_P2;Temp;Humidity;BMP_temperature;BMP_pressure;BME280_temperature;BME280_humidity;BME280_pressure;Samples;Min_cycle;Max_cycle;Signal;HPM_P1;HPM_P2
2024/03/12 00:02:14;;;;;;;6.30;2.42;;;;;;;6.71;61.94;99338.50;10438253;28;20061;-59
2024/03/12 00:07:22;;;;;;;3.92;2.55;;;;;;;6.74;61.95;99337.50;10420280;28;20504;-59
2024/03/12 00:12:25;;;;;;;8.55;2.28;;;;;;;6.83;61.95;99344.81;10436846;28;20639;-59
2024/03/12 00:17:27;;;;;;;4.90;2.33;;;;;;;6.96;61.81;99354.44;10437851;28;20053;-58
2024/03/12 00:22:29;;;;;;;7.97;2.38;;;;;;;6.94;61.70;99363.25;10438721;28;20080;-59
2024/03/12 00:27:31;;;;;;;8.93;2.70;;;;;;;7.00;61.52;99371.56;10437879;28;20053;-61
2024/03/12 00:32:33;;;;;;;3.88;2.75;;;;;;;7.14;61.93;99369.03;10437127;28;20354;-59
2024/03/12 00:37:36;;;;;;;6.30;3.40;;;;;;;7.20;61.61;99371.31;10437545;28;20052;-59
2024/03/12 00:42:41;;;;;;;5.85;2.55;;;;;;;7.18;61.84;99380.97;10434629;28;20049;-59
2024/03/12 00:47:43;;;;;;;5.80;2.28;;;;;;;7.31;61.69;99368.13;10436913;28;20059;-59
2024/03/12 00:52:46;;;;;;;8.43;2.17;;;;;;;7.46;61.68;99377.69;10467462;28;20037;-59
2024/03/12 00:57:48;;;;;;;5.28;2.55;;;;;;;7.62;61.48;99381.09;10468519;28;20055;-59
2024/03/12 01:02:53;;;;;;;4.35;2.47;;;;;;;7.62;61.52;99372.47;10434924;28;20041;-59
2024/03/12 01:08:01;;;;;;;3.63;2.33;;;;;;;7.62;61.48;99375.91;10436274;28;20844;-59
2024/03/12 01:13:08;;;;;;;2.95;1.75;;;;;;;7.54;61.38;99374.66;10435450;28;20094;-60
2024/03/12 01:18:13;;;;;;;3.88;2.13;;;;;;;7.40;61.57;99385.84;10435242;28;20493;-59
2024/03/12 01:23:15;;;;;;;2.05;1.60;;;;;;;7.43;61.71;99385.66;10434605;28;20094;-59
2024/03/12 01:28:17;;;;;;;4.38;2.17;;;;;;;7.52;61.96;99374.75;10435535;28;20057;-60
2024/03/12 01:33:19;;;;;;;3.53;1.85;;;;;;;7.61;62.00;99379.41;10433039;28;20048;-59
2024/03/12 01:38:21;;;;;;;3.72;1.60;;;;;;;7.75;61.76;99382.06;10435151;28;20048;-59
2024/03/12 01:43:27;;;;;;;3.25;1.55;;;;;;;7.75;61.82;99378.66;10433245;28;20146;-58
2024/03/12 01:48:31;;;;;;;2.67;1.70;;;;;;;7.72;61.87;99376.22;10431822;28;20107;-58
2024/03/12 01:53:33;;;;;;;4.47;1.75;;;;;;;7.59;62.22;99376.06;10433630;28;20052;-60
2024/03/12 01:58:36;;;;;;;2.97;1.67;;;;;;;7.50;62.24;99381.81;10433681;28;20037;-59
2024/03/12 02:03:38;;;;;;;2.78;1.50;;;;;;;7.55;62.14;99389.34;10415266;28;20056;-59
2024/03/12 02:08:40;;;;;;;3.13;1.63;;;;;;;7.59;62.02;99391.69;10433295;28;20056;-60
2024/03/12 02:13:43;;;;;;;3.17;1.58;;;;;;;7.76;61.96;99393.34;10432594;28;20052;-60
2024/03/12 02:18:45;;;;;;;3.75;1.50;;;;;;;7.84;61.76;99396.34;10433196;28;20057;-60
2024/03/12 02:23:47;;;;;;;3.10;1.65;;;;;;;7.98;61.40;99399.84;10433184;28;20048;-60
2024/03/12 02:28:49;;;;;;;3.13;2.10;;;;;;;8.02;61.55;99398.72;10432630;28;20390;-60
2024/03/12 02:33:52;;;;;;;3.05;1.60;;;;;;;8.10;61.39;99407.88;10410789;28;20410;-60
2024/03/12 02:38:54;;;;;;;1.95;1.30;;;;;;;8.10;61.48;99407.88;10432619;28;20087;-60
2024/03/12 02:43:56;;;;;;;3.17;1.70;;;;;;;8.05;61.55;99408.13;10432574;28;20076;-60
2024/03/12 02:48:58;;;;;;;2.60;1.67;;;;;;;8.04;61.57;99417.72;10429603;28;20136;-60
2024/03/12 02:54:04;;;;;;;4.25;1.90;;;;;;;8.08;61.65;99418.38;10430043;28;20045;-60
2024/03/12 02:59:11;;;;;;;3.47;1.88;;;;;;;8.12;61.54;99421.69;10430500;28;20045;-60
2024/03/12 03:04:13;;;;;;;4.15;2.42;;;;;;;8.04;61.71;99425.53;10431444;28;20072;-60
2024/03/12 03:09:16;;;;;;;3.83;2.10;;;;;;;7.99;61.96;99435.38;10431907;28;20065;-59
2024/03/12 03:14:18;;;;;;;3.80;2.00;;;;;;;8.00;62.06;99431.00;10432495;28;20060;-59
2024/03/12 03:19:20;;;;;;;4.40;2.03;;;;;;;8.17;61.68;99441.31;10431338;28;20052;-59
2024/03/12 03:24:22;;;;;;;4.05;2.13;;;;;;;8.24;61.68;99437.41;10430142;28;20439;-59
2024/03/12 03:29:31;;;;;;;4.47;1.95;;;;;;;8.32;61.55;99445.66;10431454;28;20052;-60
2024/03/12 03:34:33;;;;;;;4.28;2.00;;;;;;;8.27;61.62;99444.22;10430252;28;20102;-59
2024/03/12 03:39:36;;;;;;;3.28;1.80;;;;;;;8.26;61.67;99451.19;10431745;28;20040;-59
2024/03/12 03:44:38;;;;;;;3.95;2.13;;;;;;;8.28;61.84;99459.75;10430342;28;20059;-59
2024/03/12 03:49:40;;;;;;;5.53;2.70;;;;;;;8.26;61.87;99458.19;10429112;28;20127;-59
2024/03/12 03:54:42;;;;;;;3.83;1.70;;;;;;;8.34;61.82;99469.00;10431491;28;20582;-59
2024/03/12 03:59:45;;;;;;;6.70;2.40;;;;;;;8.40;61.61;99466.91;10437257;28;20052;-59
2024/03/12 04:04:47;;;;;;;4.07;1.88;;;;;;;8.40;61.68;99479.06;10436612;28;20053;-59
2024/03/12 04:09:49;;;;;;;4.47;2.35;;;;;;;8.44;61.54;99484.03;10438305;28;20504;-59
2024/03/12 04:14:51;;;;;;;3.28;2.10;;;;;;;8.44;61.52;99489.25;10438013;28;20167;-60
2024/03/12 04:19:53;;;;;;;3.85;1.88;;;;;;;8.43;61.53;99489.31;10437242;28;20045;-60
2024/03/12 04:24:55;;;;;;;5.10;2.60;;;;;;;8.46;61.58;99491.75;10437797;28;20118;-60
2024/03/12 04:29:57;;;;;;;4.28;2.20;;;;;;;8.39;61.71;99504.28;10435973;28;20517;-60
2024/03/12 04:34:59;;;;;;;4.20;2.13;;;;;;;8.36;61.79;99506.25;10435750;28;20048;-59
2024/03/12 04:40:12;;;;;;;5.55;2.20;;;;;;;8.39;61.32;99516.47;10469621;28;20060;-60
2024/03/12 04:45:14;;;;;;;4.90;2.60;;;;;;;8.28;61.97;99516.25;10436033;28;20060;-59
2024/03/12 04:50:19;;;;;;;4.13;2.28;;;;;;;8.35;61.81;99523.63;10436365;28;20110;-59
2024/03/12 04:55:21;;;;;;;4.13;1.95;;;;;;;8.28;61.94;99531.88;10435299;28;20151;-59
2024/03/12 05:00:23;;;;;;;5.35;2.60;;;;;;;8.20;62.23;99536.69;10436614;28;20583;-59
2024/03/12 05:05:25;;;;;;;4.18;2.70;;;;;;;8.33;61.98;99542.88;10435137;28;20037;-60
2024/03/12 05:10:28;;;;;;;4.03;2.25;;;;;;;8.35;61.91;99548.84;10434247;28;20135;-60
2024/03/12 05:15:30;;;;;;;6.00;2.90;;;;;;;8.26;62.08;99554.59;10435326;28;20045;-60
2024/03/12 05:20:36;;;;;;;13.63;5.50;;;;;;;8.27;62.16;99559.69;10434458;28;20126;-59
2024/03/12 05:25:42;;;;;;;12.23;4.75;;;;;;;8.31;62.06;99568.16;10432046;28;20049;-60
2024/03/12 05:30:44;;;;;;;6.45;2.95;;;;;;;8.38;61.88;99570.38;10432514;28;20048;-59
2024/03/12 05:35:51;;;;;;;6.63;2.92;;;;;;;8.41;61.92;99579.75;10433331;28;20065;-59
2024/03/12 05:51:37;;;;;;;5.95;3.47;;;;;;;8.28;62.14;99589.19;10449382;28;20814;-59
2024/03/12 05:56:40;;;;;;;6.53;2.70;;;;;;;8.28;62.07;99597.84;10431153;28;21168;-59
2024/03/12 06:01:42;;;;;;;5.15;2.78;;;;;;;8.29;62.15;99603.91;10430842;28;20446;-59
2024/03/12 06:06:45;;;;;;;4.97;2.45;;;;;;;8.29;62.20;99609.94;10428680;28;20060;-59
2024/03/12 06:11:47;;;;;;;4.85;2.65;;;;;;;8.28;62.24;99618.69;10429759;28;20061;-59
2024/03/12 06:16:49;;;;;;;5.25;2.75;;;;;;;8.29;62.19;99624.72;10429845;28;20056;-59
2024/03/12 06:21:51;;;;;;;6.75;2.72;;;;;;;8.29;62.28;99622.13;10430304;28;20057;-60
2024/03/12 06:26:53;;;;;;;4.90;2.55;;;;;;;8.35;62.15;99622.63;10427164;28;20449;-59
2024/03/12 06:31:57;;;;;;;5.40;2.42;;;;;;;8.52;61.99;99630.38;10429079;28;20140;-59
2024/03/12 06:36:59;;;;;;;4.57;2.50;;;;;;;8.60;61.75;99643.81;10428991;28;20053;-59
2024/03/12 06:42:07;;;;;;;4.95;2.50;;;;;;;8.59;61.71;99646.47;10426722;28;20060;-59
2024/03/12 06:47:10;;;;;;;5.30;2.70;;;;;;;8.72;61.69;99655.31;10425907;28;20048;-59
2024/03/12 06:52:12;;;;;;;6.30;3.33;;;;;;;8.75;61.65;99663.78;10428197;28;20996;-59
2024/03/12 06:57:17;;;;;;;5.22;2.42;;;;;;;8.84;61.43;99673.72;10427007;28;20037;-59
2024/03/12 07:02:19;;;;;;;5.07;2.50;;;;;;;8.92;61.37;99670.66;10428746;28;20045;-59
2024/03/12 07:07:23;;;;;;;5.63;2.60;;;;;;;8.98;61.07;99678.13;10428338;28;20409;-59
2024/03/12 07:12:25;;;;;;;7.03;3.30;;;;;;;8.98;61.21;99680.75;10427794;28;20056;-59
2024/03/12 07:17:27;;;;;;;5.95;2.90;;;;;;;8.96;61.13;99695.63;10428435;28;20053;-60
2024/03/12 07:22:32;;;;;;;8.93;3.67;;;;;;;8.95;61.19;99696.56;10426555;28;20578;-59
2024/03/12 07:27:35;;;;;;;6.80;2.58;;;;;;;8.95;61.15;99699.19;10427253;28;20064;-60
2024/03/12 07:32:37;;;;;;;7.15;3.80;;;;;;;9.06;61.13;99703.75;10430734;28;20053;-60
2024/03/12 07:37:41;;;;;;;5.35;2.75;;;;;;;8.98;61.19;99703.38;10434334;28;20047;-59
2024/03/12 07:42:44;;;;;;;7.75;3.38;;;;;;;8.87;61.44;99708.34;10434249;28;20041;-59
2024/03/12 07:47:46;;;;;;;7.05;3.40;;;;;;;8.95;61.51;99717.44;10434433;28;20045;-59
2024/03/12 07:52:49;;;;;;;6.78;3.20;;;;;;;8.80;61.68;99724.34;10435335;28;20068;-59
2024/03/12 07:57:51;;;;;;;6.43;3.05;;;;;;;8.79;61.83;99732.28;10434544;28;20336;-60
2024/03/12 08:02:53;;;;;;;5.82;2.75;;;;;;;8.83;61.86;99718.94;10434189;28;20037;-59
2024/03/12 08:07:55;;;;;;;5.57;2.45;;;;;;;9.05;61.54;99728.19;10434424;28;20453;-59
2024/03/12 08:12:57;;;;;;;5.57;2.83;;;;;;;9.26;61.16;99726.97;10432522;28;20045;-60
2024/03/12 08:18:01;;;;;;;5.75;2.58;;;;;;;9.39;60.97;99739.22;10433335;28;20049;-59
2024/03/12 08:23:19;;;;;;;4.53;2.10;;;;;;;9.55;60.63;99749.59;10434449;28;20056;-59
2024/03/12 08:28:21;;;;;;;5.47;3.38;;;;;;;9.57;60.49;99747.75;10432489;28;20159;-59
2024/03/12 08:33:24;;;;;;;6.25;2.83;;;;;;;9.42;60.71;99759.91;10434187;28;20453;-60
2024/03/12 08:38:28;;;;;;;5.82;2.85;;;;;;;9.44;60.56;99762.44;10433943;28;20044;-59
2024/03/12 08:43:30;;;;;;;6.22;3.33;;;;;;;9.41;60.27;99763.47;10431784;28;20051;-59
2024/03/12 08:48:33;;;;;;;5.72;2.95;;;;;;;9.38;60.17;99768.03;10433773;28;20532;-59
2024/03/12 08:53:35;;;;;;;5.85;3.35;;;;;;;9.25;59.95;99772.25;10432967;28;20108;-59
2024/03/12 08:58:38;;;;;;;6.28;3.42;;;;;;;9.38;59.65;99774.06;10432875;28;20048;-60
2024/03/12 09:03:41;;;;;;;7.07;3.33;;;;;;;9.37;59.55;99790.66;10412958;28;20041;-59
2024/03/12 09:08:49;;;;;;;7.10;3.30;;;;;;;9.43;59.24;99787.69;10429744;28;20060;-60
2024/03/12 09:13:51;;;;;;;5.10;3.13;;;;;;;9.64;58.79;99790.84;10430023;28;20044;-59
2024/03/12 09:18:53;;;;;;;7.38;3.67;;;;;;;9.84;58.54;99794.94;10431672;28;20137;-59
2024/03/12 09:23:57;;;;;;;7.15;3.78;;;;;;;9.98;58.31;99800.19;10431953;28;20052;-59
2024/03/12 09:29:05;;;;;;;7.55;3.35;;;;;;;10.06;58.14;99805.78;10430199;28;20049;-59
2024/03/12 09:34:12;;;;;;;6.85;3.63;;;;;;;10.03;57.42;99814.66;10430133;28;20048;-60
2024/03/12 09:39:17;;;;;;;6.68;3.05;;;;;;;10.04;57.56;99818.09;10431352;28;20071;-60
2024/03/12 09:44:22;;;;;;;8.82;3.72;;;;;;;10.19;56.54;99820.66;10430669;28;20986;-59
2024/03/12 09:49:25;;;;;;;9.77;3.88;;;;;;;10.24;57.08;99828.22;10429390;28;20744;-59
2024/03/12 09:54:28;;;;;;;10.57;4.78;;;;;;;10.36;56.61;99832.69;10425802;28;20041;-60
2024/03/12 09:59:31;;;;;;;7.38;3.90;;;;;;;10.45;56.47;99832.16;10429733;28;20127;-59
2024/03/12 10:04:34;;;;;;;7.13;3.80;;;;;;;10.94;55.73;99815.13;10430573;28;20045;-60
2024/03/12 10:09:37;;;;;;;8.00;3.30;;;;;;;11.50;54.01;99815.91;10429454;28;20048;-60
2024/03/12 10:14:44;;;;;;;8.48;4.40;;;;;;;11.61;53.98;99832.59;10430332;28;20584;-59
2024/03/12 10:19:48;;;;;;;9.18;3.70;;;;;;;11.52;53.96;99824.50;10430146;28;20037;-59
2024/03/12 10:24:52;;;;;;;7.50;3.92;;;;;;;11.53;53.38;99828.78;10428723;28;20047;-59
2024/03/12 10:29:54;;;;;;;7.30;3.47;;;;;;;11.66;53.46;99827.06;10429690;28;20064;-56
2024/03/12 10:34:56;;;;;;;7.28;3.15;;;;;;;11.81;52.87;99833.88;10428626;28;20427;-55
2024/03/12 10:40:15;;;;;;;7.18;3.08;;;;;;;11.91;49.38;99835.81;10429115;28;20064;-56
2024/03/12 10:45:18;;;;;;;7.25;3.08;;;;;;;12.04;51.77;99827.97;10428557;28;20726;-55
2024/03/12 10:50:22;;;;;;;7.68;3.67;;;;;;;12.18;51.24;99825.25;10428736;28;20515;-55
2024/03/12 10:55:25;;;;;;;5.90;3.30;;;;;;;12.52;51.04;99824.63;10428641;28;20131;-56
2024/03/12 11:00:30;;;;;;;6.68;3.10;;;;;;;12.50;50.33;99821.28;10428527;28;20142;-57
2024/03/12 11:05:32;;;;;;;7.57;3.55;;;;;;;12.44;50.23;99824.31;10426794;28;20094;-55
2024/03/12 11:10:36;;;;;;;6.60;3.03;;;;;;;12.31;49.00;99820.03;10432784;28;20445;-55
2024/03/12 11:15:40;;;;;;;6.32;3.70;;;;;;;12.36;49.14;99810.91;10419321;28;20045;-55
2024/03/12 11:20:42;;;;;;;7.25;3.53;;;;;;;12.66;48.55;99810.59;10430862;28;20064;-52
2024/03/12 11:25:45;;;;;;;6.22;3.28;;;;;;;12.67;49.31;99820.97;10432648;28;20033;-55
2024/03/12 11:30:54;;;;;;;10.82;3.80;;;;;;;12.60;49.13;99824.13;10433623;28;20057;-53
2024/03/12 11:35:57;;;;;;;5.43;3.03;;;;;;;12.81;48.57;99819.97;10435329;28;20048;-56
2024/03/12 11:41:02;;;;;;;5.85;2.65;;;;;;;12.68;48.96;99821.81;10416835;28;20077;-55
2024/03/12 11:46:08;;;;;;;8.52;3.60;;;;;;;12.67;48.98;99831.47;10433735;28;20052;-55
2024/03/12 11:51:13;;;;;;;5.80;3.38;;;;;;;13.02;48.65;99826.34;10435592;28;20048;-53
2024/03/12 11:56:22;;;;;;;8.68;4.45;;;;;;;12.89;48.49;99830.78;10409864;28;20503;-55
2024/03/12 12:01:31;;;;;;;6.10;3.40;;;;;;;12.62;48.98;99828.31;10433024;28;20452;-55
2024/03/12 12:06:35;;;;;;;7.13;4.15;;;;;;;12.58;49.06;99829.47;10433046;28;20048;-56
2024/03/12 12:11:38;;;;;;;8.52;3.65;;;;;;;12.57;48.67;99824.31;10433510;28;20657;-56
2024/03/12 12:16:41;;;;;;;6.40;3.83;;;;;;;12.58;48.64;99832.09;10434219;28;20540;-56
2024/03/12 12:21:45;;;;;;;6.70;3.58;;;;;;;12.80;48.46;99824.38;10432963;28;20051;-57
2024/03/12 12:26:47;;;;;;;8.75;3.20;;;;;;;12.99;48.34;99823.91;10432591;28;20057;-56
2024/03/12 12:31:52;;;;;;;9.70;4.53;;;;;;;13.13;47.85;99820.31;10429260;28;20053;-56
2024/03/12 12:36:56;;;;;;;11.98;4.40;;;;;;;13.04;46.64;99815.72;10463148;28;20045;-55
2024/03/12 12:41:59;;;;;;;9.40;4.30;;;;;;;12.73;46.92;99814.44;10465152;28;20365;-55
2024/03/12 12:47:03;;;;;;;8.93;4.15;;;;;;;13.06;46.71;99817.31;10431935;28;20203;-56
2024/03/12 12:52:05;;;;;;;10.10;4.95;;;;;;;13.12;46.24;99811.59;10433791;28;20118;-57
2024/03/12 12:57:10;;;;;;;13.93;7.07;;;;;;;13.41;45.78;99802.44;10434568;28;20053;-54
2024/03/12 13:02:14;;;;;;;10.38;4.80;;;;;;;13.58;45.68;99796.81;10436232;28;20457;-55
2024/03/12 13:07:31;;;;;;;12.23;5.18;;;;;;;13.61;44.21;99785.25;10436594;28;20049;-56
2024/03/12 13:12:33;;;;;;;16.02;6.63;;;;;;;13.66;45.13;99785.72;10435853;28;20263;-57
2024/03/12 13:17:35;;;;;;;8.90;4.28;;;;;;;13.70;45.46;99787.16;10436030;28;20616;-55
2024/03/12 13:22:37;;;;;;;10.48;4.78;;;;;;;13.83;44.94;99787.94;10436292;28;20049;-57
2024/03/12 13:27:40;;;;;;;11.02;5.35;;;;;;;13.98;44.41;99771.03;10435652;28;20056;-55
2024/03/12 13:32:43;;;;;;;11.10;4.65;;;;;;;14.03;44.06;99782.00;10433250;28;20044;-56
2024/03/12 13:37:45;;;;;;;9.00;4.20;;;;;;;13.48;43.32;99790.56;10434499;28;20091;-55
2024/03/12 13:42:48;;;;;;;8.30;3.53;;;;;;;13.10;41.87;99789.03;10434944;28;20098;-56
2024/03/12 13:47:50;;;;;;;10.00;4.57;;;;;;;12.58;43.80;99799.75;10435475;28;20099;-57
2024/03/12 13:52:52;;;;;;;9.68;4.43;;;;;;;12.66;44.10;99807.97;10435018;28;20442;-55
2024/03/12 13:57:56;;;;;;;14.20;4.55;;;;;;;12.49;43.67;99809.13;10433868;28;20040;-57
2024/03/12 14:02:58;;;;;;;10.60;4.85;;;;;;;12.15;42.09;99813.19;10434636;28;20044;-55
2024/03/12 14:08:03;;;;;;;10.95;4.10;;;;;;;12.27;43.97;99815.91;10434508;28;20106;-55
2024/03/12 14:13:05;;;;;;;11.57;4.13;;;;;;;12.26;44.25;99817.69;10466145;28;20095;-55
2024/03/12 14:18:08;;;;;;;11.52;5.25;;;;;;;12.36;43.89;99817.94;10432586;28;20136;-54
2024/03/12 14:23:10;;;;;;;10.13;4.47;;;;;;;12.29;44.00;99817.53;10465989;28;20429;-57
2024/03/12 14:28:12;;;;;;;9.80;4.18;;;;;;;12.17;43.95;99826.22;10432336;28;20103;-57
2024/03/12 14:33:15;;;;;;;10.15;4.68;;;;;;;11.97;43.67;99824.06;10432540;28;20519;-57
2024/03/12 14:38:17;;;;;;;9.25;4.47;;;;;;;11.83;44.15;99826.75;10432984;28;20047;-58
2024/03/12 14:43:20;;;;;;;11.25;4.10;;;;;;;11.67;44.32;99832.19;10431732;28;20049;-58
2024/03/12 14:48:22;;;;;;;9.60;4.90;;;;;;;11.70;44.81;99831.16;10432648;28;20071;-56
2024/03/12 14:53:24;;;;;;;12.40;5.45;;;;;;;11.77;44.83;99825.41;10430979;28;20055;-57
2024/03/12 14:58:27;;;;;;;10.98;5.65;;;;;;;11.82;44.53;99830.34;10414994;28;20045;-56
2024/03/12 15:03:30;;;;;;;10.38;4.60;;;;;;;11.90;44.60;99834.13;10431521;28;20121;-58
2024/03/12 15:08:32;;;;;;;10.95;5.00;;;;;;;11.32;44.34;99831.84;10432157;28;20109;-56
2024/03/12 15:13:36;;;;;;;12.48;4.97;;;;;;;11.66;44.96;99833.13;10432794;28;20516;-56
2024/03/12 15:18:39;;;;;;;11.30;5.47;;;;;;;11.71;45.31;99833.66;10430401;28;20226;-53
2024/03/12 15:23:41;;;;;;;10.10;4.20;;;;;;;11.85;44.77;99827.50;10431033;28;20460;-56
2024/03/12 15:28:43;;;;;;;11.43;5.00;;;;;;;11.74;45.00;99822.16;10430999;28;20069;-59
2024/03/12 15:33:45;;;;;;;11.02;5.13;;;;;;;11.71;45.52;99830.19;10432132;28;20041;-57
2024/03/12 15:38:48;;;;;;;13.50;5.22;;;;;;;11.42;45.19;99829.47;10430013;28;20048;-57
2024/03/12 15:43:50;;;;;;;13.05;5.40;;;;;;;11.50;45.75;99826.38;10432198;28;21108;-57
2024/03/12 15:48:52;;;;;;;12.57;6.03;;;;;;;11.68;45.58;99825.19;10431068;28;20491;-56
2024/03/12 15:53:55;;;;;;;15.70;6.30;;;;;;;11.80;45.31;99824.38;10434253;28;20570;-56
2024/03/12 15:58:57;;;;;;;10.45;5.03;;;;;;;11.82;44.95;99825.09;10438319;28;20076;-56
2024/03/12 16:04:00;;;;;;;10.52;4.30;;;;;;;11.87;45.08;99823.00;10439193;28;20051;-55
2024/03/12 16:09:02;;;;;;;11.18;4.43;;;;;;;11.69;44.75;99824.22;10437699;28;20119;-58
2024/03/12 16:14:08;;;;;;;12.38;5.03;;;;;;;11.54;45.49;99830.47;10437688;28;20080;-55
2024/03/12 16:19:13;;;;;;;13.30;5.53;;;;;;;11.15;45.95;99833.88;10471648;28;20471;-57
2024/03/12 16:24:18;;;;;;;8.98;4.35;;;;;;;11.22;46.06;99841.25;10435803;28;20516;-55
2024/03/12 16:29:21;;;;;;;10.40;4.97;;;;;;;11.25;46.51;99834.97;10420382;28;20049;-57
2024/03/12 16:34:26;;;;;;;9.93;4.78;;;;;;;11.18;46.74;99834.53;10438057;28;20102;-57
2024/03/12 16:39:28;;;;;;;10.50;5.03;;;;;;;11.03;46.76;99835.44;10437525;28;20124;-57
2024/03/12 16:44:30;;;;;;;15.55;6.60;;;;;;;10.87;46.89;99833.88;10419479;28;20069;-56
2024/03/12 16:49:38;;;;;;;9.55;4.85;;;;;;;10.86;47.36;99834.84;10437541;28;20052;-56
2024/03/12 16:54:40;;;;;;;12.00;5.07;;;;;;;10.79;47.45;99839.59;10437093;28;20057;-56
2024/03/12 16:59:42;;;;;;;12.02;5.50;;;;;;;10.65;47.51;99839.63;10452820;28;20080;-57
2024/03/12 17:04:45;;;;;;;11.75;4.93;;;;;;;10.36;48.11;99845.75;10432293;28;20049;-55
2024/03/12 17:09:47;;;;;;;13.15;4.85;;;;;;;10.37;48.29;99845.69;10434776;28;20049;-55
2024/03/12 17:14:50;;;;;;;12.57;6.00;;;;;;;10.37;48.40;99847.47;10432976;28;20080;-55
2024/03/12 17:19:52;;;;;;;12.82;5.13;;;;;;;10.35;48.54;99846.72;10425278;28;20128;-56
2024/03/12 17:24:55;;;;;;;13.30;5.95;;;;;;;10.35;48.60;99846.72;10427782;28;20076;-55
2024/03/12 17:30:01;;;;;;;10.10;4.80;;;;;;;10.36;49.02;99853.59;10428895;28;20182;-56
2024/03/12 17:35:05;;;;;;;14.23;5.95;;;;;;;10.24;49.12;99849.13;10425988;28;20106;-56
2024/03/12 17:40:13;;;;;;;11.93;4.75;;;;;;;10.20;49.32;99842.38;10428227;28;20429;-56
2024/03/12 17:45:16;;;;;;;13.45;6.47;;;;;;;10.20;49.43;99850.22;10426419;28;20049;-57
2024/03/12 17:50:20;;;;;;;10.73;5.43;;;;;;;10.23;49.48;99865.75;10423725;28;20064;-60
2024/03/12 17:55:23;;;;;;;11.05;4.97;;;;;;;10.25;49.63;99858.66;10424361;28;20126;-61
2024/03/12 18:00:25;;;;;;;10.52;5.05;;;;;;;10.11;50.08;99869.09;10415718;28;20583;-61
2024/03/12 18:05:28;;;;;;;12.10;6.22;;;;;;;10.04;50.31;99868.59;10418350;28;20115;-60
2024/03/12 18:10:32;;;;;;;14.20;5.50;;;;;;;9.97;50.77;99869.06;10422962;28;20063;-60
2024/03/12 18:15:35;;;;;;;11.35;5.75;;;;;;;9.96;50.90;99870.81;10420915;28;20155;-61
2024/03/12 18:20:40;;;;;;;12.30;5.53;;;;;;;9.98;51.09;99871.56;10414541;28;20051;-61
2024/03/12 18:25:43;;;;;;;10.70;4.97;;;;;;;9.97;51.20;99876.88;10416001;28;20049;-61
2024/03/12 18:30:45;;;;;;;13.15;5.85;;;;;;;9.95;51.17;99878.75;10416936;28;20041;-60
2024/03/12 18:35:48;;;;;;;12.50;5.53;;;;;;;9.94;51.45;99875.28;10423921;28;20607;-59
2024/03/12 18:40:53;;;;;;;13.55;5.63;;;;;;;9.90;51.82;99883.38;10406256;28;20049;-61
2024/03/12 18:45:55;;;;;;;11.82;5.22;;;;;;;9.85;52.27;99883.63;10415989;28;20045;-59
2024/03/12 18:50:58;;;;;;;11.77;5.40;;;;;;;9.75;52.78;99884.28;10414016;28;20044;-61
2024/03/12 18:56:01;;;;;;;14.45;6.35;;;;;;;9.71;53.58;99880.97;10418739;28;20040;-61
2024/03/12 19:01:03;;;;;;;13.95;6.10;;;;;;;9.69;54.30;99892.47;10426720;28;20080;-61
2024/03/12 19:06:12;;;;;;;12.48;6.13;;;;;;;9.60;55.28;99894.63;10459108;28;20139;-61
2024/03/12 19:11:26;;;;;;;13.18;6.55;;;;;;;9.53;55.78;99893.28;10427539;28;20049;-62
2024/03/12 19:16:34;;;;;;;14.10;6.65;;;;;;;9.38;58.00;99895.91;10424516;28;20132;-61
2024/03/12 19:21:36;;;;;;;12.38;6.55;;;;;;;9.31;56.93;99891.94;10406622;28;20033;-62
2024/03/12 19:26:39;;;;;;;14.65;6.43;;;;;;;9.26;57.46;99892.19;10426185;28;20053;-61
2024/03/12 19:31:41;;;;;;;13.50;6.78;;;;;;;9.27;57.76;99896.50;10429258;28;20063;-61
2024/03/12 19:36:46;;;;;;;12.48;6.68;;;;;;;9.20;58.08;99894.31;10427581;28;20699;-62
2024/03/12 19:41:48;;;;;;;15.68;6.63;;;;;;;9.19;58.10;99887.41;10431196;28;20260;-61
2024/03/12 19:46:50;;;;;;;13.20;5.97;;;;;;;9.20;58.30;99882.09;10430811;28;20762;-61
2024/03/12 19:51:53;;;;;;;11.82;5.97;;;;;;;9.13;58.45;99890.34;10434014;28;20052;-61
2024/03/12 19:56:57;;;;;;;10.30;5.63;;;;;;;9.19;58.77;99887.41;10430964;28;20040;-61
2024/03/12 20:01:59;;;;;;;10.18;5.43;;;;;;;9.22;58.78;99888.06;10431851;28;20747;-61
2024/03/12 20:07:02;;;;;;;14.15;5.63;;;;;;;9.23;59.09;99878.47;10429460;28;20092;-61
2024/03/12 20:12:07;;;;;;;11.60;5.72;;;;;;;9.18;59.34;99881.34;10433694;28;20057;-62
2024/03/12 20:17:09;;;;;;;13.82;5.32;;;;;;;9.12;59.48;99881.66;10428850;28;20041;-61
2024/03/12 20:22:11;;;;;;;13.15;5.05;;;;;;;8.96;59.74;99886.03;10428558;28;20094;-61
2024/03/12 20:27:14;;;;;;;9.20;4.63;;;;;;;8.92;60.04;99879.28;10428245;28;20147;-61
2024/03/12 20:32:16;;;;;;;8.18;4.32;;;;;;;8.94;60.00;99880.06;10432756;28;20107;-61
2024/03/12 20:37:19;;;;;;;11.02;3.95;;;;;;;9.03;59.59;99876.97;10432210;28;20033;-61
2024/03/12 20:42:22;;;;;;;7.85;3.92;;;;;;;8.97;59.62;99874.69;10430071;28;20056;-61
2024/03/12 20:47:24;;;;;;;10.70;4.03;;;;;;;8.83;59.87;99877.19;10435608;28;20037;-61
2024/03/12 20:52:27;;;;;;;8.27;4.15;;;;;;;8.64;60.31;99877.34;10435996;28;20045;-61
2024/03/12 20:57:31;;;;;;;7.72;3.63;;;;;;;8.65;60.58;99871.19;10434688;28;20049;-61
2024/03/12 21:02:33;;;;;;;7.43;3.75;;;;;;;8.63;61.07;99872.16;10434720;28;20059;-61
2024/03/12 21:07:35;;;;;;;7.05;3.22;;;;;;;8.70;61.14;99863.13;10435689;28;20079;-62
2024/03/12 21:12:38;;;;;;;8.43;3.80;;;;;;;8.60;60.85;99859.31;10434653;28;20069;-62
2024/03/12 21:17:42;;;;;;;7.68;2.80;;;;;;;8.64;60.97;99853.88;10432176;28;20055;-61
2024/03/12 21:22:45;;;;;;;7.90;3.88;;;;;;;8.73;60.80;99853.34;10431424;28;20041;-61
2024/03/12 21:27:47;;;;;;;5.53;2.47;;;;;;;8.75;60.71;99846.28;10435166;28;20068;-61
2024/03/12 21:32:52;;;;;;;6.15;2.83;;;;;;;8.68;60.80;99839.75;10433940;28;20047;-61
2024/03/12 21:37:55;;;;;;;4.70;2.45;;;;;;;8.63;61.04;99835.69;10434057;28;20072;-61
2024/03/12 21:42:58;;;;;;;5.05;2.28;;;;;;;8.60;60.96;99830.63;10432679;28;20132;-61
2024/03/12 21:48:01;;;;;;;7.03;2.40;;;;;;;8.48;60.99;99828.69;10432625;28;20049;-61
2024/03/12 21:53:07;;;;;;;5.57;1.75;;;;;;;8.47;60.78;99822.63;10433504;28;20051;-61
2024/03/12 21:58:10;;;;;;;4.22;1.98;;;;;;;8.52;60.59;99825.00;10433391;28;20053;-61
2024/03/12 22:03:12;;;;;;;4.05;1.80;;;;;;;8.54;60.38;99820.53;10432384;28;20106;-61
2024/03/12 22:08:16;;;;;;;6.07;2.28;;;;;;;8.50;60.52;99824.22;10433090;28;20052;-61
2024/03/12 22:13:18;;;;;;;3.92;2.10;;;;;;;8.46;60.91;99822.72;10432361;28;20055;-62
2024/03/12 22:18:34;;;;;;;4.00;1.92;;;;;;;8.52;61.47;99827.59;10431821;28;20049;-62
2024/03/12 22:23:39;;;;;;;7.90;3.40;;;;;;;8.52;61.41;99817.19;10432944;28;20053;-61
2024/03/12 22:28:41;;;;;;;6.50;2.90;;;;;;;8.37;61.52;99818.81;10434018;28;20317;-61
2024/03/12 22:33:43;;;;;;;5.55;2.38;;;;;;;8.19;62.04;99821.53;10431932;28;20041;-61
2024/03/12 22:38:49;;;;;;;5.88;2.83;;;;;;;8.19;62.02;99821.53;10416058;28;20048;-62
2024/03/12 22:43:51;;;;;;;6.10;2.75;;;;;;;8.19;62.17;99824.16;10431720;28;20037;-61
2024/03/12 22:48:54;;;;;;;7.80;3.13;;;;;;;8.16;62.53;99813.91;10431516;28;20045;-61
2024/03/12 22:53:56;;;;;;;5.57;3.03;;;;;;;8.17;62.58;99818.16;10432529;28;20045;-60
2024/03/12 22:58:59;;;;;;;6.70;3.63;;;;;;;8.18;62.58;99812.06;10432827;28;20056;-61
2024/03/12 23:04:04;;;;;;;8.57;3.80;;;;;;;8.07;62.76;99819.53;10429282;28;20136;-61
2024/03/12 23:09:08;;;;;;;7.18;3.53;;;;;;;7.93;63.30;99815.03;10432225;28;20045;-61
2024/03/12 23:14:10;;;;;;;7.90;3.75;;;;;;;8.02;63.21;99806.75;10432197;28;20452;-60
2024/03/12 23:19:13;;;;;;;10.68;4.57;;;;;;;8.11;63.31;99808.06;10430628;28;20133;-60
2024/03/12 23:24:15;;;;;;;6.10;3.55;;;;;;;8.27;63.14;99793.31;10432222;28;20033;-60
2024/03/12 23:29:17;;;;;;;9.43;4.07;;;;;;;8.37;63.16;99789.31;10432224;28;20060;-61
2024/03/12 23:34:20;;;;;;;7.18;3.13;;;;;;;8.43;63.14;99787.22;10428892;28;20048;-60
2024/03/12 23:39:25;;;;;;;8.52;4.03;;;;;;;8.51;63.04;99779.00;10412974;28;20048;-60
2024/03/12 23:44:34;;;;;;;11.02;3.72;;;;;;;8.45;63.19;99779.31;10431524;28;20841;-60